sensor_id;sensor_type;location;lat;lon;timestamp;temperature;humidity
12847;DHT22;6492;48.128;8.320;2022-11-09T00:01:28;7.70;48.10
12847;DHT22;6492;48.128;8.320;2022-11-09T00:05:31;7.80;47.30
12847;DHT22;6492;48.128;8.320;2022-11-09T00:09:33;7.90;45.50
12847;DHT22;6492;48.128;8.320;2022-11-09T00:13:37;8.00;44.30
12847;DHT22;6492;48.128;8.320;2022-11-09T00:17:39;8.10;43.40
12847;DHT22;6492;48.128;8.320;2022-11-09T00:21:43;8.20;41.90
12847;DHT22;6492;48.128;8.320;2022-11-09T00:25:44;8.30;41.50
12847;DHT22;6492;48.128;8.320;2022-11-09T00:29:46;8.40;41.90
12847;DHT22;6492;48.128;8.320;2022-11-09T00:33:49;8.40;41.10
12847;DHT22;6492;48.128;8.320;2022-11-09T00:37:53;8.40;41.20
12847;DHT22;6492;48.128;8.320;2022-11-09T00:41:55;8.30;41.10
12847;DHT22;6492;48.128;8.320;2022-11-09T00:45:56;8.40;40.50
12847;DHT22;6492;48.128;8.320;2022-11-09T00:49:59;8.30;41.10
12847;DHT22;6492;48.128;8.320;2022-11-09T00:54:02;8.40;41.00
12847;DHT22;6492;48.128;8.320;2022-11-09T00:58:04;8.40;41.00
12847;DHT22;6492;48.128;8.320;2022-11-09T01:02:05;8.50;40.60
12847;DHT22;6492;48.128;8.320;2022-11-09T01:06:08;8.50;40.30
12847;DHT22;6492;48.128;8.320;2022-11-09T01:10:15;8.60;40.40
12847;DHT22;6492;48.128;8.320;2022-11-09T01:14:17;8.60;39.80
12847;DHT22;6492;48.128;8.320;2022-11-09T01:18:25;8.60;39.80
12847;DHT22;6492;48.128;8.320;2022-11-09T01:22:27;8.70;39.80
12847;DHT22;6492;48.128;8.320;2022-11-09T01:26:30;8.80;38.40
12847;DHT22;6492;48.128;8.320;2022-11-09T01:30:34;8.90;38.30
12847;DHT22;6492;48.128;8.320;2022-11-09T01:34:35;8.90;38.20
12847;DHT22;6492;48.128;8.320;2022-11-09T01:38:38;8.90;38.10
12847;DHT22;6492;48.128;8.320;2022-11-09T01:42:41;8.90;38.30
12847;DHT22;6492;48.128;8.320;2022-11-09T01:46:47;8.90;39.30
12847;DHT22;6492;48.128;8.320;2022-11-09T01:50:54;9.00;39.70
12847;DHT22;6492;48.128;8.320;2022-11-09T01:55:01;9.00;39.80
12847;DHT22;6492;48.128;8.320;2022-11-09T01:59:07;9.00;39.10
12847;DHT22;6492;48.128;8.320;2022-11-09T02:03:16;9.10;39.30
12847;DHT22;6492;48.128;8.320;2022-11-09T02:07:19;9.10;39.90
12847;DHT22;6492;48.128;8.320;2022-11-09T02:11:26;9.20;40.40
12847;DHT22;6492;48.128;8.320;2022-11-09T02:15:30;9.20;40.60
12847;DHT22;6492;48.128;8.320;2022-11-09T02:19:32;9.20;41.60
12847;DHT22;6492;48.128;8.320;2022-11-09T02:23:35;9.10;41.90
12847;DHT22;6492;48.128;8.320;2022-11-09T02:27:37;9.10;42.50
12847;DHT22;6492;48.128;8.320;2022-11-09T02:31:43;9.00;43.60
12847;DHT22;6492;48.128;8.320;2022-11-09T02:35:45;8.90;46.50
12847;DHT22;6492;48.128;8.320;2022-11-09T02:39:49;8.90;47.80
12847;DHT22;6492;48.128;8.320;2022-11-09T02:43:51;8.90;49.90
12847;DHT22;6492;48.128;8.320;2022-11-09T02:47:54;8.90;51.50
12847;DHT22;6492;48.128;8.320;2022-11-09T02:51:56;8.90;53.20
12847;DHT22;6492;48.128;8.320;2022-11-09T02:55:59;8.90;54.10
12847;DHT22;6492;48.128;8.320;2022-11-09T03:00:02;8.90;55.70
12847;DHT22;6492;48.128;8.320;2022-11-09T03:04:04;8.90;56.50
12847;DHT22;6492;48.128;8.320;2022-11-09T03:08:06;8.90;58.70
12847;DHT22;6492;48.128;8.320;2022-11-09T03:12:09;8.90;59.90
12847;DHT22;6492;48.128;8.320;2022-11-09T03:16:32;9.00;60.80
12847;DHT22;6492;48.128;8.320;2022-11-09T03:20:34;9.00;61.60
12847;DHT22;6492;48.128;8.320;2022-11-09T03:24:36;9.10;63.90
12847;DHT22;6492;48.128;8.320;2022-11-09T03:28:39;9.10;64.20
12847;DHT22;6492;48.128;8.320;2022-11-09T03:32:42;9.10;64.60
12847;DHT22;6492;48.128;8.320;2022-11-09T03:36:44;9.10;66.60
12847;DHT22;6492;48.128;8.320;2022-11-09T03:40:46;9.20;68.20
12847;DHT22;6492;48.128;8.320;2022-11-09T03:44:49;9.30;70.00
12847;DHT22;6492;48.128;8.320;2022-11-09T03:48:51;9.40;70.50
12847;DHT22;6492;48.128;8.320;2022-11-09T03:52:52;9.60;70.90
12847;DHT22;6492;48.128;8.320;2022-11-09T03:56:54;9.60;70.60
12847;DHT22;6492;48.128;8.320;2022-11-09T04:00:57;9.70;70.50
12847;DHT22;6492;48.128;8.320;2022-11-09T04:04:59;9.70;69.80
12847;DHT22;6492;48.128;8.320;2022-11-09T04:09:01;9.70;69.60
12847;DHT22;6492;48.128;8.320;2022-11-09T04:13:03;9.70;69.70
12847;DHT22;6492;48.128;8.320;2022-11-09T04:17:06;9.70;69.70
12847;DHT22;6492;48.128;8.320;2022-11-09T04:21:08;9.60;69.50
12847;DHT22;6492;48.128;8.320;2022-11-09T04:25:10;9.60;69.80
12847;DHT22;6492;48.128;8.320;2022-11-09T04:29:12;9.60;70.80
12847;DHT22;6492;48.128;8.320;2022-11-09T04:33:16;9.50;70.50
12847;DHT22;6492;48.128;8.320;2022-11-09T04:37:18;9.50;70.90
12847;DHT22;6492;48.128;8.320;2022-11-09T04:41:19;9.50;71.30
12847;DHT22;6492;48.128;8.320;2022-11-09T04:45:31;9.50;71.50
12847;DHT22;6492;48.128;8.320;2022-11-09T04:49:35;9.40;71.60
12847;DHT22;6492;48.128;8.320;2022-11-09T04:53:37;9.40;71.80
12847;DHT22;6492;48.128;8.320;2022-11-09T04:57:39;9.40;71.80
12847;DHT22;6492;48.128;8.320;2022-11-09T05:01:41;9.30;72.20
12847;DHT22;6492;48.128;8.320;2022-11-09T05:05:44;9.30;72.20
12847;DHT22;6492;48.128;8.320;2022-11-09T05:09:46;9.30;72.30
12847;DHT22;6492;48.128;8.320;2022-11-09T05:13:48;9.20;72.30
12847;DHT22;6492;48.128;8.320;2022-11-09T05:18:00;9.20;72.80
12847;DHT22;6492;48.128;8.320;2022-11-09T05:22:03;9.20;73.60
12847;DHT22;6492;48.128;8.320;2022-11-09T05:26:19;9.20;73.80
12847;DHT22;6492;48.128;8.320;2022-11-09T05:30:21;9.20;73.90
12847;DHT22;6492;48.128;8.320;2022-11-09T05:34:37;9.20;75.00
12847;DHT22;6492;48.128;8.320;2022-11-09T05:38:40;9.20;74.60
12847;DHT22;6492;48.128;8.320;2022-11-09T05:42:42;9.20;74.70
12847;DHT22;6492;48.128;8.320;2022-11-09T05:46:44;9.20;75.00
12847;DHT22;6492;48.128;8.320;2022-11-09T05:50:46;9.20;75.20
12847;DHT22;6492;48.128;8.320;2022-11-09T05:54:49;9.20;75.40
12847;DHT22;6492;48.128;8.320;2022-11-09T05:59:08;9.20;75.50
12847;DHT22;6492;48.128;8.320;2022-11-09T06:03:10;9.20;76.40
12847;DHT22;6492;48.128;8.320;2022-11-09T06:07:12;9.10;75.70
12847;DHT22;6492;48.128;8.320;2022-11-09T06:11:15;9.10;75.70
12847;DHT22;6492;48.128;8.320;2022-11-09T06:15:17;9.10;75.80
12847;DHT22;6492;48.128;8.320;2022-11-09T06:19:19;9.00;75.60
12847;DHT22;6492;48.128;8.320;2022-11-09T06:23:21;9.00;75.40
12847;DHT22;6492;48.128;8.320;2022-11-09T06:27:26;8.90;75.40
12847;DHT22;6492;48.128;8.320;2022-11-09T06:31:28;8.80;76.10
12847;DHT22;6492;48.128;8.320;2022-11-09T06:35:32;8.80;75.40
12847;DHT22;6492;48.128;8.320;2022-11-09T06:39:34;8.80;75.70
12847;DHT22;6492;48.128;8.320;2022-11-09T06:43:37;8.80;76.00
12847;DHT22;6492;48.128;8.320;2022-11-09T06:47:39;8.80;76.50
12847;DHT22;6492;48.128;8.320;2022-11-09T06:51:40;8.90;76.90
12847;DHT22;6492;48.128;8.320;2022-11-09T06:55:42;8.90;76.90
12847;DHT22;6492;48.128;8.320;2022-11-09T06:59:46;8.90;77.00
12847;DHT22;6492;48.128;8.320;2022-11-09T07:03:48;8.90;77.00
12847;DHT22;6492;48.128;8.320;2022-11-09T07:07:50;8.80;76.80
12847;DHT22;6492;48.128;8.320;2022-11-09T07:11:51;8.80;76.90
12847;DHT22;6492;48.128;8.320;2022-11-09T07:15:55;8.80;76.90
12847;DHT22;6492;48.128;8.320;2022-11-09T07:19:57;8.80;77.10
12847;DHT22;6492;48.128;8.320;2022-11-09T07:23:58;8.80;77.40
12847;DHT22;6492;48.128;8.320;2022-11-09T07:28:04;8.80;77.60
12847;DHT22;6492;48.128;8.320;2022-11-09T07:32:08;8.90;77.90
12847;DHT22;6492;48.128;8.320;2022-11-09T07:36:10;9.00;78.10
12847;DHT22;6492;48.128;8.320;2022-11-09T07:40:12;9.00;78.30
12847;DHT22;6492;48.128;8.320;2022-11-09T07:44:14;9.10;78.60
12847;DHT22;6492;48.128;8.320;2022-11-09T07:48:19;9.10;78.70
12847;DHT22;6492;48.128;8.320;2022-11-09T07:52:21;9.30;79.10
12847;DHT22;6492;48.128;8.320;2022-11-09T07:56:23;9.40;79.30
12847;DHT22;6492;48.128;8.320;2022-11-09T08:00:26;9.60;79.60
12847;DHT22;6492;48.128;8.320;2022-11-09T08:04:29;9.60;79.50
12847;DHT22;6492;48.128;8.320;2022-11-09T08:08:31;9.70;79.60
12847;DHT22;6492;48.128;8.320;2022-11-09T08:12:34;9.70;79.40
12847;DHT22;6492;48.128;8.320;2022-11-09T08:16:36;9.80;79.40
12847;DHT22;6492;48.128;8.320;2022-11-09T08:20:39;9.90;79.30
12847;DHT22;6492;48.128;8.320;2022-11-09T08:24:41;9.90;79.80
12847;DHT22;6492;48.128;8.320;2022-11-09T08:28:42;9.90;78.60
12847;DHT22;6492;48.128;8.320;2022-11-09T08:32:45;9.90;78.30
12847;DHT22;6492;48.128;8.320;2022-11-09T08:36:48;9.90;78.20
12847;DHT22;6492;48.128;8.320;2022-11-09T08:40:55;9.90;78.20
12847;DHT22;6492;48.128;8.320;2022-11-09T08:44:58;10.10;79.00
12847;DHT22;6492;48.128;8.320;2022-11-09T08:49:00;10.20;79.40
12847;DHT22;6492;48.128;8.320;2022-11-09T08:53:03;10.30;79.50
12847;DHT22;6492;48.128;8.320;2022-11-09T08:57:05;10.40;79.00
12847;DHT22;6492;48.128;8.320;2022-11-09T09:01:08;10.30;78.00
12847;DHT22;6492;48.128;8.320;2022-11-09T09:05:09;10.30;77.10
12847;DHT22;6492;48.128;8.320;2022-11-09T09:09:13;10.30;76.20
12847;DHT22;6492;48.128;8.320;2022-11-09T09:13:15;10.20;75.10
12847;DHT22;6492;48.128;8.320;2022-11-09T09:17:27;10.20;74.60
12847;DHT22;6492;48.128;8.320;2022-11-09T09:21:29;10.10;74.00
12847;DHT22;6492;48.128;8.320;2022-11-09T09:25:32;10.00;74.00
12847;DHT22;6492;48.128;8.320;2022-11-09T09:29:34;10.10;74.90
12847;DHT22;6492;48.128;8.320;2022-11-09T09:33:36;10.30;75.20
12847;DHT22;6492;48.128;8.320;2022-11-09T09:37:38;10.40;75.10
12847;DHT22;6492;48.128;8.320;2022-11-09T09:41:46;10.60;75.50
12847;DHT22;6492;48.128;8.320;2022-11-09T09:45:52;10.90;75.60
12847;DHT22;6492;48.128;8.320;2022-11-09T09:49:56;11.10;74.90
12847;DHT22;6492;48.128;8.320;2022-11-09T09:54:04;11.20;73.90
12847;DHT22;6492;48.128;8.320;2022-11-09T09:58:12;11.30;72.80
12847;DHT22;6492;48.128;8.320;2022-11-09T10:02:19;11.40;70.90
12847;DHT22;6492;48.128;8.320;2022-11-09T10:06:36;11.60;69.30
12847;DHT22;6492;48.128;8.320;2022-11-09T10:10:46;11.70;67.40
12847;DHT22;6492;48.128;8.320;2022-11-09T10:15:09;11.90;66.10
12847;DHT22;6492;48.128;8.320;2022-11-09T10:19:31;12.00;62.50
12847;DHT22;6492;48.128;8.320;2022-11-09T10:23:41;12.10;59.30
12847;DHT22;6492;48.128;8.320;2022-11-09T10:27:48;12.20;58.20
12847;DHT22;6492;48.128;8.320;2022-11-09T10:31:54;12.20;54.80
12847;DHT22;6492;48.128;8.320;2022-11-09T10:36:01;12.20;53.10
12847;DHT22;6492;48.128;8.320;2022-11-09T10:40:14;12.20;53.80
12847;DHT22;6492;48.128;8.320;2022-11-09T10:44:18;12.20;53.70
12847;DHT22;6492;48.128;8.320;2022-11-09T10:48:30;12.30;54.10
12847;DHT22;6492;48.128;8.320;2022-11-09T10:52:33;12.40;54.50
12847;DHT22;6492;48.128;8.320;2022-11-09T10:56:43;12.50;50.30
12847;DHT22;6492;48.128;8.320;2022-11-09T11:00:59;12.50;49.60
12847;DHT22;6492;48.128;8.320;2022-11-09T11:09:36;12.70;48.70
12847;DHT22;6492;48.128;8.320;2022-11-09T11:13:39;12.80;49.10
12847;DHT22;6492;48.128;8.320;2022-11-09T11:17:41;12.90;49.30
12847;DHT22;6492;48.128;8.320;2022-11-09T11:21:44;12.90;45.90
12847;DHT22;6492;48.128;8.320;2022-11-09T11:26:02;12.80;45.90
12847;DHT22;6492;48.128;8.320;2022-11-09T11:30:10;12.90;46.80
12847;DHT22;6492;48.128;8.320;2022-11-09T11:34:13;12.80;43.30
12847;DHT22;6492;48.128;8.320;2022-11-09T11:38:23;12.70;44.60
12847;DHT22;6492;48.128;8.320;2022-11-09T11:47:01;12.90;46.20
12847;DHT22;6492;48.128;8.320;2022-11-09T11:51:12;12.80;44.50
12847;DHT22;6492;48.128;8.320;2022-11-09T11:55:31;12.80;45.80
12847;DHT22;6492;48.128;8.320;2022-11-09T12:00:00;12.70;46.00
12847;DHT22;6492;48.128;8.320;2022-11-09T12:04:20;12.70;46.10
12847;DHT22;6492;48.128;8.320;2022-11-09T12:08:29;12.70;44.40
12847;DHT22;6492;48.128;8.320;2022-11-09T12:12:42;12.60;45.90
12847;DHT22;6492;48.128;8.320;2022-11-09T12:16:50;12.60;45.60
12847;DHT22;6492;48.128;8.320;2022-11-09T12:20:57;12.80;46.70
12847;DHT22;6492;48.128;8.320;2022-11-09T12:25:12;12.80;44.50
12847;DHT22;6492;48.128;8.320;2022-11-09T12:29:19;12.90;45.30
12847;DHT22;6492;48.128;8.320;2022-11-09T12:33:27;13.00;43.30
12847;DHT22;6492;48.128;8.320;2022-11-09T12:37:36;12.90;43.70
12847;DHT22;6492;48.128;8.320;2022-11-09T12:41:39;12.80;43.80
12847;DHT22;6492;48.128;8.320;2022-11-09T12:45:44;12.70;44.70
12847;DHT22;6492;48.128;8.320;2022-11-09T12:49:46;12.80;45.30
12847;DHT22;6492;48.128;8.320;2022-11-09T12:53:48;12.80;46.00
12847;DHT22;6492;48.128;8.320;2022-11-09T12:57:50;12.80;46.30
12847;DHT22;6492;48.128;8.320;2022-11-09T13:01:54;12.70;45.70
12847;DHT22;6492;48.128;8.320;2022-11-09T13:06:23;12.60;45.00
12847;DHT22;6492;48.128;8.320;2022-11-09T13:10:29;12.50;45.90
12847;DHT22;6492;48.128;8.320;2022-11-09T13:14:36;12.20;46.10
12847;DHT22;6492;48.128;8.320;2022-11-09T13:18:52;12.00;45.60
12847;DHT22;6492;48.128;8.320;2022-11-09T13:22:58;11.70;46.60
12847;DHT22;6492;48.128;8.320;2022-11-09T13:27:02;11.60;47.90
12847;DHT22;6492;48.128;8.320;2022-11-09T13:31:08;11.50;49.40
12847;DHT22;6492;48.128;8.320;2022-11-09T13:40:00;11.30;49.80
12847;DHT22;6492;48.128;8.320;2022-11-09T13:44:20;11.20;51.00
12847;DHT22;6492;48.128;8.320;2022-11-09T13:48:35;11.10;52.40
12847;DHT22;6492;48.128;8.320;2022-11-09T13:52:49;11.20;52.60
12847;DHT22;6492;48.128;8.320;2022-11-09T13:56:53;11.10;52.70
12847;DHT22;6492;48.128;8.320;2022-11-09T14:00:55;11.10;53.30
12847;DHT22;6492;48.128;8.320;2022-11-09T14:04:57;11.10;53.80
12847;DHT22;6492;48.128;8.320;2022-11-09T14:09:02;11.10;54.90
12847;DHT22;6492;48.128;8.320;2022-11-09T14:17:44;11.00;54.00
12847;DHT22;6492;48.128;8.320;2022-11-09T14:21:51;10.90;55.00
12847;DHT22;6492;48.128;8.320;2022-11-09T14:25:54;10.90;55.70
12847;DHT22;6492;48.128;8.320;2022-11-09T14:29:59;10.80;56.20
12847;DHT22;6492;48.128;8.320;2022-11-09T14:34:03;10.80;57.30
12847;DHT22;6492;48.128;8.320;2022-11-09T14:38:15;10.80;57.90
12847;DHT22;6492;48.128;8.320;2022-11-09T14:42:19;10.80;58.40
12847;DHT22;6492;48.128;8.320;2022-11-09T14:46:24;10.70;58.70
12847;DHT22;6492;48.128;8.320;2022-11-09T14:50:29;10.70;59.30
12847;DHT22;6492;48.128;8.320;2022-11-09T14:54:32;10.60;60.00
12847;DHT22;6492;48.128;8.320;2022-11-09T14:58:37;10.40;60.90
12847;DHT22;6492;48.128;8.320;2022-11-09T15:02:41;10.30;62.90
12847;DHT22;6492;48.128;8.320;2022-11-09T15:06:45;10.20;63.60
12847;DHT22;6492;48.128;8.320;2022-11-09T15:10:48;10.10;63.10
12847;DHT22;6492;48.128;8.320;2022-11-09T15:14:52;9.90;62.70
12847;DHT22;6492;48.128;8.320;2022-11-09T15:18:56;9.90;63.60
12847;DHT22;6492;48.128;8.320;2022-11-09T15:22:59;9.80;63.70
12847;DHT22;6492;48.128;8.320;2022-11-09T15:27:01;9.70;64.60
12847;DHT22;6492;48.128;8.320;2022-11-09T15:31:09;9.60;65.10
12847;DHT22;6492;48.128;8.320;2022-11-09T15:35:16;9.50;65.90
12847;DHT22;6492;48.128;8.320;2022-11-09T15:39:20;9.50;66.80
12847;DHT22;6492;48.128;8.320;2022-11-09T15:43:22;9.40;67.40
12847;DHT22;6492;48.128;8.320;2022-11-09T15:47:28;9.40;67.90
12847;DHT22;6492;48.128;8.320;2022-11-09T15:51:35;9.30;67.90
12847;DHT22;6492;48.128;8.320;2022-11-09T15:55:37;9.30;68.60
12847;DHT22;6492;48.128;8.320;2022-11-09T15:59:38;9.20;68.50
12847;DHT22;6492;48.128;8.320;2022-11-09T16:03:40;9.10;69.10
12847;DHT22;6492;48.128;8.320;2022-11-09T16:07:51;9.00;68.90
12847;DHT22;6492;48.128;8.320;2022-11-09T16:11:53;8.90;67.50
12847;DHT22;6492;48.128;8.320;2022-11-09T16:16:01;8.80;67.10
12847;DHT22;6492;48.128;8.320;2022-11-09T16:20:05;8.80;67.60
12847;DHT22;6492;48.128;8.320;2022-11-09T16:24:09;8.70;67.90
12847;DHT22;6492;48.128;8.320;2022-11-09T16:28:18;8.60;68.20
12847;DHT22;6492;48.128;8.320;2022-11-09T16:32:20;8.60;68.80
12847;DHT22;6492;48.128;8.320;2022-11-09T16:36:23;8.50;69.20
12847;DHT22;6492;48.128;8.320;2022-11-09T16:40:27;8.50;69.70
12847;DHT22;6492;48.128;8.320;2022-11-09T16:44:35;8.40;69.90
12847;DHT22;6492;48.128;8.320;2022-11-09T16:48:45;8.40;70.30
12847;DHT22;6492;48.128;8.320;2022-11-09T16:52:47;8.30;70.70
12847;DHT22;6492;48.128;8.320;2022-11-09T16:56:53;8.30;70.90
12847;DHT22;6492;48.128;8.320;2022-11-09T17:00:55;8.30;71.00
12847;DHT22;6492;48.128;8.320;2022-11-09T17:04:57;8.30;70.80
12847;DHT22;6492;48.128;8.320;2022-11-09T17:08:59;8.20;70.40
12847;DHT22;6492;48.128;8.320;2022-11-09T17:13:06;8.20;71.10
12847;DHT22;6492;48.128;8.320;2022-11-09T17:17:20;8.20;70.30
12847;DHT22;6492;48.128;8.320;2022-11-09T17:21:23;8.10;70.40
12847;DHT22;6492;48.128;8.320;2022-11-09T17:25:26;8.10;70.80
12847;DHT22;6492;48.128;8.320;2022-11-09T17:29:40;8.10;70.60
12847;DHT22;6492;48.128;8.320;2022-11-09T17:33:42;8.00;70.60
12847;DHT22;6492;48.128;8.320;2022-11-09T17:38:14;8.10;70.70
12847;DHT22;6492;48.128;8.320;2022-11-09T17:42:16;8.00;70.80
12847;DHT22;6492;48.128;8.320;2022-11-09T17:46:20;8.00;70.80
12847;DHT22;6492;48.128;8.320;2022-11-09T17:50:53;8.00;70.80
12847;DHT22;6492;48.128;8.320;2022-11-09T17:54:56;7.90;70.50
12847;DHT22;6492;48.128;8.320;2022-11-09T17:59:02;7.90;70.60
12847;DHT22;6492;48.128;8.320;2022-11-09T18:03:05;7.90;70.30
12847;DHT22;6492;48.128;8.320;2022-11-09T18:07:07;7.90;70.30
12847;DHT22;6492;48.128;8.320;2022-11-09T18:11:21;7.90;70.60
12847;DHT22;6492;48.128;8.320;2022-11-09T18:15:23;8.00;70.80
12847;DHT22;6492;48.128;8.320;2022-11-09T18:19:26;8.00;70.60
12847;DHT22;6492;48.128;8.320;2022-11-09T18:23:37;8.00;70.30
12847;DHT22;6492;48.128;8.320;2022-11-09T18:27:39;8.10;70.30
12847;DHT22;6492;48.128;8.320;2022-11-09T18:31:41;8.10;69.70
12847;DHT22;6492;48.128;8.320;2022-11-09T18:35:54;8.10;69.50
12847;DHT22;6492;48.128;8.320;2022-11-09T18:40:01;8.10;69.20
12847;DHT22;6492;48.128;8.320;2022-11-09T18:44:03;8.10;68.60
12847;DHT22;6492;48.128;8.320;2022-11-09T18:48:05;8.10;68.40
12847;DHT22;6492;48.128;8.320;2022-11-09T18:52:09;8.10;69.00
12847;DHT22;6492;48.128;8.320;2022-11-09T18:56:13;8.10;69.10
12847;DHT22;6492;48.128;8.320;2022-11-09T19:00:18;8.10;68.90
12847;DHT22;6492;48.128;8.320;2022-11-09T19:09:24;8.10;68.70
12847;DHT22;6492;48.128;8.320;2022-11-09T19:13:34;8.10;68.30
12847;DHT22;6492;48.128;8.320;2022-11-09T19:17:43;8.00;68.40
12847;DHT22;6492;48.128;8.320;2022-11-09T19:21:56;8.00;68.70
12847;DHT22;6492;48.128;8.320;2022-11-09T19:26:01;8.00;68.70
12847;DHT22;6492;48.128;8.320;2022-11-09T19:30:03;7.90;69.10
12847;DHT22;6492;48.128;8.320;2022-11-09T19:34:05;7.90;69.40
12847;DHT22;6492;48.128;8.320;2022-11-09T19:38:08;7.90;70.00
12847;DHT22;6492;48.128;8.320;2022-11-09T19:42:15;7.80;69.80
12847;DHT22;6492;48.128;8.320;2022-11-09T19:46:18;7.80;69.80
12847;DHT22;6492;48.128;8.320;2022-11-09T19:50:20;7.90;70.30
12847;DHT22;6492;48.128;8.320;2022-11-09T19:54:22;7.90;70.70
12847;DHT22;6492;48.128;8.320;2022-11-09T19:58:25;7.90;70.50
12847;DHT22;6492;48.128;8.320;2022-11-09T20:02:27;7.90;70.50
12847;DHT22;6492;48.128;8.320;2022-11-09T20:06:29;7.90;70.40
12847;DHT22;6492;48.128;8.320;2022-11-09T20:10:45;7.90;70.60
12847;DHT22;6492;48.128;8.320;2022-11-09T20:14:49;8.00;71.30
12847;DHT22;6492;48.128;8.320;2022-11-09T20:18:51;7.90;71.60
12847;DHT22;6492;48.128;8.320;2022-11-09T20:22:53;8.00;72.20
12847;DHT22;6492;48.128;8.320;2022-11-09T20:26:55;8.00;72.90
12847;DHT22;6492;48.128;8.320;2022-11-09T20:30:59;8.10;73.30
12847;DHT22;6492;48.128;8.320;2022-11-09T20:35:01;8.10;73.30
12847;DHT22;6492;48.128;8.320;2022-11-09T20:39:21;8.10;73.40
12847;DHT22;6492;48.128;8.320;2022-11-09T20:43:34;8.10;73.90
12847;DHT22;6492;48.128;8.320;2022-11-09T20:47:39;8.10;74.20
12847;DHT22;6492;48.128;8.320;2022-11-09T20:51:55;8.10;74.80
12847;DHT22;6492;48.128;8.320;2022-11-09T20:56:23;8.10;75.20
12847;DHT22;6492;48.128;8.320;2022-11-09T21:00:25;8.10;75.50
12847;DHT22;6492;48.128;8.320;2022-11-09T21:04:37;8.10;75.90
12847;DHT22;6492;48.128;8.320;2022-11-09T21:08:41;8.10;76.10
12847;DHT22;6492;48.128;8.320;2022-11-09T21:12:43;8.10;76.00
12847;DHT22;6492;48.128;8.320;2022-11-09T21:16:45;8.10;76.20
12847;DHT22;6492;48.128;8.320;2022-11-09T21:20:48;8.10;76.30
12847;DHT22;6492;48.128;8.320;2022-11-09T21:24:50;8.10;76.40
12847;DHT22;6492;48.128;8.320;2022-11-09T21:29:23;8.10;76.40
12847;DHT22;6492;48.128;8.320;2022-11-09T21:33:42;8.10;76.60
12847;DHT22;6492;48.128;8.320;2022-11-09T21:37:45;8.10;76.90
12847;DHT22;6492;48.128;8.320;2022-11-09T21:41:48;8.10;77.20
12847;DHT22;6492;48.128;8.320;2022-11-09T21:45:49;8.10;77.60
12847;DHT22;6492;48.128;8.320;2022-11-09T21:49:53;8.10;77.60
12847;DHT22;6492;48.128;8.320;2022-11-09T21:53:56;8.10;77.80
12847;DHT22;6492;48.128;8.320;2022-11-09T21:57:58;8.10;78.10
12847;DHT22;6492;48.128;8.320;2022-11-09T22:02:01;8.10;78.30
12847;DHT22;6492;48.128;8.320;2022-11-09T22:06:03;8.10;78.50
12847;DHT22;6492;48.128;8.320;2022-11-09T22:10:07;8.10;77.90
12847;DHT22;6492;48.128;8.320;2022-11-09T22:14:11;7.90;76.20
12847;DHT22;6492;48.128;8.320;2022-11-09T22:18:31;7.70;73.20
12847;DHT22;6492;48.128;8.320;2022-11-09T22:22:50;7.50;73.10
12847;DHT22;6492;48.128;8.320;2022-11-09T22:26:53;7.40;73.70
12847;DHT22;6492;48.128;8.320;2022-11-09T22:30:55;7.40;74.30
12847;DHT22;6492;48.128;8.320;2022-11-09T22:34:57;7.30;74.90
12847;DHT22;6492;48.128;8.320;2022-11-09T22:38:58;7.30;75.60
12847;DHT22;6492;48.128;8.320;2022-11-09T22:43:02;7.30;75.90
12847;DHT22;6492;48.128;8.320;2022-11-09T22:47:03;7.20;75.80
12847;DHT22;6492;48.128;8.320;2022-11-09T22:51:06;7.20;76.10
12847;DHT22;6492;48.128;8.320;2022-11-09T22:55:08;7.10;76.20
12847;DHT22;6492;48.128;8.320;2022-11-09T22:59:11;7.10;76.30
12847;DHT22;6492;48.128;8.320;2022-11-09T23:03:13;7.60;76.90
12847;DHT22;6492;48.128;8.320;2022-11-09T23:07:15;7.00;76.70
12847;DHT22;6492;48.128;8.320;2022-11-09T23:11:18;6.90;76.70
12847;DHT22;6492;48.128;8.320;2022-11-09T23:15:21;6.80;76.60
12847;DHT22;6492;48.128;8.320;2022-11-09T23:19:23;6.70;76.70
12847;DHT22;6492;48.128;8.320;2022-11-09T23:23:25;6.70;77.10
12847;DHT22;6492;48.128;8.320;2022-11-09T23:27:27;6.60;77.20
12847;DHT22;6492;48.128;8.320;2022-11-09T23:31:30;6.60;77.60
12847;DHT22;6492;48.128;8.320;2022-11-09T23:35:32;6.50;77.70
12847;DHT22;6492;48.128;8.320;2022-11-09T23:39:34;6.50;77.70
12847;DHT22;6492;48.128;8.320;2022-11-09T23:43:36;6.40;77.80
12847;DHT22;6492;48.128;8.320;2022-11-09T23:47:40;6.40;77.80
12847;DHT22;6492;48.128;8.320;2022-11-09T23:51:42;6.40;78.20
12847;DHT22;6492;48.128;8.320;2022-11-09T23:55:43;6.30;78.30
12847;DHT22;6492;48.128;8.320;2022-11-09T23:59:45;6.30;78.50
